地図

経路データ

SID SEASON NUMBER BASIN SUBBASIN NAME ISO_TIME NATURE LAT LON WMO_WIND WMO_PRES WMO_AGENCY TRACK_TYPE DIST2LAND LANDFALL IFLAG USA_AGENCY USA_ATCF_ID USA_LAT USA_LON USA_RECORD USA_STATUS USA_WIND USA_PRES USA_SSHS USA_R34_NE USA_R34_SE USA_R34_SW USA_R34_NW USA_R50_NE USA_R50_SE USA_R50_SW USA_R50_NW USA_R64_NE USA_R64_SE USA_R64_SW USA_R64_NW USA_POCI USA_ROCI USA_RMW USA_EYE TOKYO_LAT TOKYO_LON TOKYO_GRADE TOKYO_WIND TOKYO_PRES TOKYO_R50_DIR TOKYO_R50_LONG TOKYO_R50_SHORT TOKYO_R30_DIR TOKYO_R30_LONG TOKYO_R30_SHORT TOKYO_LAND CMA_LAT CMA_LON CMA_CAT CMA_WIND CMA_PRES HKO_LAT HKO_LON HKO_CAT HKO_WIND HKO_PRES NEWDELHI_LAT NEWDELHI_LON NEWDELHI_GRADE NEWDELHI_WIND NEWDELHI_PRES NEWDELHI_CI NEWDELHI_DP NEWDELHI_POCI REUNION_LAT REUNION_LON REUNION_TYPE REUNION_WIND REUNION_PRES REUNION_TNUM REUNION_CI REUNION_RMW REUNION_R34_NE REUNION_R34_SE REUNION_R34_SW REUNION_R34_NW REUNION_R50_NE REUNION_R50_SE REUNION_R50_SW REUNION_R50_NW REUNION_R64_NE REUNION_R64_SE REUNION_R64_SW REUNION_R64_NW BOM_LAT BOM_LON BOM_TYPE BOM_WIND BOM_PRES BOM_TNUM BOM_CI BOM_RMW BOM_R34_NE BOM_R34_SE BOM_R34_SW BOM_R34_NW BOM_R50_NE BOM_R50_SE BOM_R50_SW BOM_R50_NW BOM_R64_NE BOM_R64_SE BOM_R64_SW BOM_R64_NW BOM_ROCI BOM_POCI BOM_EYE BOM_POS_METHOD BOM_PRES_METHOD NADI_LAT NADI_LON NADI_CAT NADI_WIND NADI_PRES WELLINGTON_LAT WELLINGTON_LON WELLINGTON_WIND WELLINGTON_PRES DS824_LAT DS824_LON DS824_STAGE DS824_WIND DS824_PRES TD9636_LAT TD9636_LON TD9636_STAGE TD9636_WIND TD9636_PRES TD9635_LAT TD9635_LON TD9635_WIND TD9635_PRES TD9635_ROCI NEUMANN_LAT NEUMANN_LON NEUMANN_CLASS NEUMANN_WIND NEUMANN_PRES MLC_LAT MLC_LON MLC_CLASS MLC_WIND MLC_PRES USA_GUST BOM_GUST BOM_GUST_PER REUNION_GUST REUNION_GUST_PER USA_SEAHGT USA_SEARAD_NE USA_SEARAD_SE USA_SEARAD_SW USA_SEARAD_NW STORM_SPEED STORM_DIR
1973158N16068 1973 52 NI AS NOT_NAMED 1973-06-06 12:00:00 TS 16.0000 68.4000 main 526 517 O________OO___ jtwc_io IO021973 16.0000 68.4000 -1 16.0000 68.4000 TC 25 16.0000 68.4000 1 8 354
1973158N16068 1973 52 NI AS NOT_NAMED 1973-06-06 15:00:00 TS 16.3955 68.3529 main 517 509 P________PP___ IO021973 16.3925 68.3700 -1 16.3925 68.3700 TC 25 16.4016 68.3187 1 8 352
1973158N16068 1973 52 NI AS NOT_NAMED 1973-06-06 18:00:00 TS 16.8042 68.2766 main 509 477 O________OP___ jtwc_io IO021973 16.8000 68.3000 -1 16.8000 68.3000 TC 25 16.8125 68.2298 1 9 347
1973158N16068 1973 52 NI AS NOT_NAMED 1973-06-06 21:00:00 TS 17.2374 68.1520 main 477 443 P________PP___ IO021973 17.2350 68.1650 -1 17.2350 68.1650 TC 25 17.2422 68.1261 1 9 343
1973158N16068 1973 52 NI AS NOT_NAMED 1973-06-07 00:00:00 TS 17.7000 68.0000 main 443 403 O________OO___ jtwc_io IO021973 17.7000 68.0000 -1 17.7000 68.0000 TC 25 17.7000 68.0000 1 10 343
1973158N16068 1973 52 NI AS NOT_NAMED 1973-06-07 03:00:00 TS 18.1963 67.8539 main 403 374 P________PP___ IO021973 18.2000 67.8574 -1 18.2000 67.8574 TC 25 18.1891 67.8468 1 10 344
1973158N16068 1973 52 NI AS NOT_NAMED 1973-06-07 06:00:00 TS 18.6958 67.6910 main 374 358 O________OP___ jtwc_io IO021973 18.7000 67.7000 -1 18.7000 67.7000 TC 25 18.6875 67.6729 1 10 341
1973158N16068 1973 52 NI AS NOT_NAMED 1973-06-07 09:00:00 TS 19.1707 67.4958 main 350 335 P________PP___ IO021973 19.1725 67.5000 -1 19.1725 67.5000 TC 25 19.1672 67.4874 1 10 338
1973158N16068 1973 52 NI AS NOT_NAMED 1973-06-07 12:00:00 TS 19.6000 67.3000 main 335 317 O________OO___ jtwc_io IO021973 19.6000 67.3000 -1 19.6000 67.3000 TC 25 19.6000 67.3000 1 9 338
1973158N16068 1973 52 NI AS NOT_NAMED 1973-06-07 15:00:00 TS 19.9768 67.1415 main 317 297 P________PP___ IO021973 19.9799 67.1498 -1 19.9799 67.1498 TC 25 19.9705 67.1247 1 8 337
1973158N16068 1973 52 NI AS NOT_NAMED 1973-06-07 18:00:00 TS 20.2966 66.9832 main 297 288 O________OP___ jtwc_io IO021973 20.3000 67.0000 -1 20.3000 67.0000 TC 25 20.2899 66.9497 1 7 331
1973158N16068 1973 52 NI AS NOT_NAMED 1973-06-07 21:00:00 TS 20.5698 66.7916 main 288 288 P________PP___ IO021973 20.5725 66.8000 -1 20.5725 66.8000 TC 25 20.5643 66.7748 1 6 325
1973158N16068 1973 52 NI AS NOT_NAMED 1973-06-08 00:00:00 TS 20.8000 66.6000 main 290 284 O________OO___ jtwc_io IO021973 20.8000 66.6000 -1 20.8000 66.6000 TC 25 20.8000 66.6000 1 6 323
1973158N16068 1973 52 NI AS NOT_NAMED 1973-06-08 03:00:00 TS 21.0177 66.4361 main 296 290 P________PP___ IO021973 21.0149 66.4499 -1 21.0149 66.4499 TC 25 21.0232 66.4086 1 5 323
1973158N16068 1973 52 NI AS NOT_NAMED 1973-06-08 06:00:00 TS 21.2034 66.2733 main 295 295 O________OP___ jtwc_io IO021973 21.2000 66.3000 -1 21.2000 66.3000 TC 25 21.2101 66.2199 1 5 316
1973158N16068 1973 52 NI AS NOT_NAMED 1973-06-08 09:00:00 TS 21.3657 66.0771 main 305 305 P________PP___ IO021973 21.3650 66.0925 -1 21.3650 66.0925 TC 25 21.3669 66.0462 1 5 311
1973158N16068 1973 52 NI AS NOT_NAMED 1973-06-08 12:00:00 TS 21.5000 65.9000 main 310 307 O________OO___ jtwc_io IO021973 21.5000 65.9000 -1 21.5000 65.9000 TC 25 21.5000 65.9000 1 4 313
1973158N16068 1973 52 NI AS NOT_NAMED 1973-06-08 15:00:00 TS 21.6134 65.7931 main 307 298 P________PP___ IO021973 21.6075 65.7774 -1 21.6075 65.7774 TC 25 21.6254 65.8243 1 3 322
1973158N16068 1973 52 NI AS NOT_NAMED 1973-06-08 18:00:00 TS 21.7099 65.7240 main 305 296 O________OP___ jtwc_io IO021973 21.7000 65.7000 -1 21.7000 65.7000 TC 25 21.7296 65.7720 1 2 331
1973158N16068 1973 52 NI AS NOT_NAMED 1973-06-08 21:00:00 TS 21.8063 65.6795 main 296 295 P________PP___ IO021973 21.7999 65.6649 -1 21.7999 65.6649 TC 25 21.8191 65.7088 1 2 330
1973158N16068 1973 52 NI AS NOT_NAMED 1973-06-09 00:00:00 TS 21.9000 65.6000 main 295 294 O________OO___ jtwc_io IO021973 21.9000 65.6000 -1 21.9000 65.6000 TC 25 21.9000 65.6000 1 3 311
1973158N16068 1973 52 NI AS NOT_NAMED 1973-06-09 03:00:00 TS 22.0085 65.4307 main 302 301 P________PP___ IO021973 22.0075 65.4375 -1 22.0075 65.4375 TC 25 22.0106 65.4170 1 4 298
1973158N16068 1973 52 NI AS NOT_NAMED 1973-06-09 06:00:00 TS 22.1033 65.1944 main 309 309 O________OP___ jtwc_io IO021973 22.1000 65.2000 -1 22.1000 65.2000 TC 25 22.1099 65.1831 1 5 289
1973158N16068 1973 52 NI AS NOT_NAMED 1973-06-09 09:00:00 TS 22.1747 64.9176 main 325 325 P________PP___ IO021973 22.1725 64.9226 -1 22.1725 64.9226 TC 25 22.1792 64.9077 1 6 280
1973158N16068 1973 52 NI AS NOT_NAMED 1973-06-09 12:00:00 TS 22.2000 64.6000 main 335 335 O________OO___ jtwc_io IO021973 22.2000 64.6000 -1 22.2000 64.6000 TC 25 22.2000 64.6000 1 6 270
1973158N16068 1973 52 NI AS NOT_NAMED 1973-06-09 15:00:00 TS 22.1729 64.2550 main 335 335 P________PP___ IO021973 22.1800 64.2575 -1 22.1800 64.2575 TC 25 22.1588 64.2498 1 7 260
1973158N16068 1973 52 NI AS NOT_NAMED 1973-06-09 18:00:00 TS 22.0894 63.8923 main 348 347 O________OP___ jtwc_io IO021973 22.1000 63.9000 -1 22.1000 63.9000 TC 25 22.0681 63.8769 1 7 253
1973158N16068 1973 52 NI AS NOT_NAMED 1973-06-09 21:00:00 TS 21.9628 63.5235 main 357 353 P________PP___ IO021973 21.9725 63.5274 -1 21.9725 63.5274 TC 30 21.9432 63.5155 1 7 246
1973158N16068 1973 52 NI AS NOT_NAMED 1973-06-10 00:00:00 TS 21.8000 63.2000 main 353 334 O________OO___ jtwc_io IO021973 21.8000 63.2000 -1 21.8000 63.2000 TC 35 21.8000 63.2000 2 6 237
1973158N16068 1973 52 NI AS NOT_NAMED 1973-06-10 03:00:00 TS 21.6095 62.9425 main 326 319 P________PP___ IO021973 21.5924 62.9700 -1 21.5924 62.8948 TC 35 21.6437 62.9625 2 5 225
1973158N16068 1973 52 NI AS NOT_NAMED 1973-06-10 06:00:00 TS 21.4257 62.7917 main 322 322 O________OP___ jtwc_io IO021973 21.4000 62.8000 -1 21.4000 62.8000 TC 35 21.4771 62.7750 2 3 199
1973158N16068 1973 52 NI AS NOT_NAMED 1973-06-10 09:00:00 TS 21.2874 62.8234 main 325 325 P________PP___ IO021973 21.2700 62.6350 -1 21.2702 63.2103 TC 30 21.3220 62.6250 2 2 168
1973158N16068 1973 52 NI AS NOT_NAMED 1973-06-10 12:00:00 TS 21.2000 62.8333 main 329 310 O________OO___ jtwc_io IO021973 21.2000 62.5000 -1 21.2000 63.5000 TC 25 21.2000 62.5000 2 3 244
1973158N16068 1973 52 NI AS NOT_NAMED 1973-06-10 15:00:00 TS 21.1750 62.5769 main 310 281 P________PP___ IO021973 21.1925 62.3926 -1 21.1936 62.9675 TC 25 21.1390 62.3705 2 5 267
1973158N16068 1973 52 NI AS NOT_NAMED 1973-06-10 18:00:00 TS 21.1708 62.2876 main 281 271 O________OP___ jtwc_io IO021973 21.2000 62.3000 -1 21.2000 62.3000 TC 25 21.1124 62.2628 2 4 264
1973158N16068 1973 52 NI AS NOT_NAMED 1973-06-10 21:00:00 TS 21.1348 62.1612 main 276 267 P________PP___ IO021973 21.1500 62.1925 -1 21.1496 62.1175 TC 25 21.1046 62.1736 2 2 248
1973158N16068 1973 52 NI AS NOT_NAMED 1973-06-11 00:00:00 TS 21.1000 62.1000 main 267 258 O________OO___ jtwc_io IO021973 21.1000 62.1000 -1 21.1000 62.1000 TC 25 21.1000 62.1000 1 1 249
1973158N16068 1973 52 NI AS NOT_NAMED 1973-06-11 03:00:00 TS 21.0930 62.0416 main 258 258 P________PP___ IO021973 21.1000 62.0425 -1 21.1000 62.0425 TC 25 21.0790 62.0397 1 1 262
1973158N16068 1973 52 NI AS NOT_NAMED 1973-06-11 06:00:00 TS 21.0858 61.9975 main 258 258 O________OP___ jtwc_io IO021973 21.1000 62.0000 -1 21.1000 62.0000 TC 25 21.0574 61.9925 1 1 243
1973158N16068 1973 52 NI AS NOT_NAMED 1973-06-11 09:00:00 TS 21.0490 61.9497 main 255 255 P________PP___ IO021973 21.0575 61.9500 -1 21.0575 61.9500 TC 25 21.0321 61.9491 1 1 227
1973158N16068 1973 52 NI AS NOT_NAMED 1973-06-11 12:00:00 TS 21.0000 61.9000 main 255 255 O________OO___ jtwc_io IO021973 21.0000 61.9000 -1 21.0000 61.9000 TC 25 21.0000 61.9000 1 1 224
1973158N16068 1973 52 NI AS NOT_NAMED 1973-06-11 15:00:00 TS 20.9551 61.8545 main 255 252 P________PP___ IO021973 20.9500 61.8575 -1 20.9500 61.8575 TC 25 20.9652 61.8485 1 1 225
1973158N16068 1973 52 NI AS NOT_NAMED 1973-06-11 18:00:00 TS 20.9075 61.7959 main 252 244 O________OP___ jtwc_io IO021973 20.9000 61.8000 -1 20.9000 61.8000 TC 25 20.9224 61.7876 1 2 235
1973158N16068 1973 52 NI AS NOT_NAMED 1973-06-11 21:00:00 TS 20.8611 61.7127 main 244 240 P________PP___ IO021973 20.8575 61.7150 -1 20.8575 61.7150 TC 25 20.8683 61.7079 1 2 239
1973158N16068 1973 52 NI AS NOT_NAMED 1973-06-12 00:00:00 TS 20.8000 61.6000 main 240 232 O________OO___ jtwc_io IO021973 20.8000 61.6000 -1 20.8000 61.6000 TC 25 20.8000 61.6000 1 3 237
1973158N16068 1973 52 NI AS NOT_NAMED 1973-06-12 03:00:00 TS 20.7101 61.4625 main 238 226 P________PP___ IO021973 20.7075 61.4650 -1 20.7075 61.4650 TC 25 20.7155 61.4576 1 3 236
1973158N16068 1973 52 NI AS NOT_NAMED 1973-06-12 06:00:00 TS 20.6059 61.2957 main 226 212 O________OP___ jtwc_io IO021973 20.6000 61.3000 -1 20.6000 61.3000 TC 25 20.6178 61.2872 1 4 238
1973158N16068 1973 52 NI AS NOT_NAMED 1973-06-12 09:00:00 TS 20.5021 61.1044 main 212 200 P________PP___ IO021973 20.4976 61.1075 -1 20.4976 61.1075 TC 25 20.5112 61.0981 1 4 241
1973158N16068 1973 52 NI AS NOT_NAMED 1973-06-12 12:00:00 TS 20.4000 60.9000 main 200 O________OO___ jtwc_io IO021973 20.4000 60.9000 -1 20.4000 60.9000 TC 25 20.4000 60.9000 6 4 242

IBTrACS Databaseについて

本データベースは、米国NOAAが公開する1842年以降の世界の熱帯低気圧のベストトラックデータアーカイブInternational Best Track Archive for Climate Stewardship (IBTrACS)を、ウェブで閲覧しやすい形式に変換したものです。

最終更新日:2021-12-06